Arden, New York
Current Conditions -  °F | °C
As of 5:45 PM on Wednesday 22 Oct 2014 (Local Time) from KSWF Reporting Station
Light Rain Light Rain  
Wind Chill: 10°   Ceiling: 1500
Heat Index: 10°   Visibility: 4mi
Dew Point: 10°   Wind: 14mph
Humidity: 100%   Direction: 20°NNE
Pressure: 29.9"   Gusts: 23mph
Location:  41.27°N, 74.15°W
Report Text: KSWF 222145Z 02012G20KT 4SM -RA BR OVC015 10/10 A2990
Loading
Personal Weather Stations






























Interactive Weather Map
Tropical Storm Tracking
New forecast layout! Learn more

10-Day Weather Forecast

Advertisements
Track Severe Weather on mobile